createdAt,value
2022-12-01T00:01:22.975Z,17.60
2022-12-01T00:03:49.784Z,16.80
2022-12-01T00:06:21.021Z,18.00
2022-12-01T00:09:09.905Z,18.30
2022-12-01T00:11:38.847Z,18.27
2022-12-01T00:14:06.666Z,18.93
2022-12-01T00:16:34.489Z,19.73
2022-12-01T00:19:03.462Z,19.07
2022-12-01T00:21:30.225Z,18.47
2022-12-01T00:23:58.493Z,17.57
2022-12-01T00:26:26.689Z,18.90
2022-12-01T00:28:57.176Z,19.30
2022-12-01T00:31:25.992Z,16.33
2022-12-01T00:33:52.961Z,17.67
2022-12-01T00:36:20.386Z,17.20
2022-12-01T00:38:47.266Z,17.73
2022-12-01T00:41:14.238Z,18.60
2022-12-01T00:43:41.063Z,16.63
2022-12-01T00:46:07.999Z,16.33
2022-12-01T00:48:34.779Z,16.60
2022-12-01T00:51:03.174Z,17.43
2022-12-01T00:53:30.774Z,17.17
2022-12-01T00:55:57.583Z,15.83
2022-12-01T00:58:25.467Z,16.53
2022-12-01T01:01:03.729Z,15.73
2022-12-01T01:03:32.909Z,15.97
2022-12-01T01:06:09.155Z,14.90
2022-12-01T01:08:36.906Z,15.90
2022-12-01T01:11:05.646Z,17.17
2022-12-01T01:13:33.490Z,15.90
2022-12-01T01:16:04.019Z,16.07
2022-12-01T01:18:32.036Z,15.73
2022-12-01T01:21:10.430Z,15.43
2022-12-01T01:23:37.224Z,17.47
2022-12-01T01:26:12.709Z,15.93
2022-12-01T01:28:41.600Z,16.87
2022-12-01T01:31:12.305Z,16.17
2022-12-01T01:33:39.178Z,15.57
2022-12-01T01:36:07.213Z,16.23
2022-12-01T01:38:35.733Z,15.23
2022-12-01T01:41:03.659Z,15.50
2022-12-01T01:43:51.777Z,16.60
2022-12-01T01:46:27.369Z,15.30
2022-12-01T01:48:56.066Z,15.20
2022-12-01T01:51:32.548Z,16.17
2022-12-01T01:54:07.817Z,15.90
2022-12-01T01:56:37.260Z,16.37
2022-12-01T01:59:04.603Z,16.20
2022-12-01T02:01:31.921Z,14.23
2022-12-01T02:03:59.087Z,16.50
2022-12-01T02:06:26.001Z,16.37
2022-12-01T02:08:53.787Z,16.47
2022-12-01T02:12:00.356Z,16.77
2022-12-01T02:15:06.506Z,16.33
2022-12-01T02:17:52.458Z,14.83
2022-12-01T02:21:09.272Z,16.07
2022-12-01T02:23:54.689Z,15.53
2022-12-01T02:26:53.561Z,14.37
2022-12-01T02:29:28.526Z,15.10
2022-12-01T02:32:13.704Z,15.90
2022-12-01T02:35:02.014Z,16.20
2022-12-01T02:37:38.715Z,15.43
2022-12-01T02:40:24.278Z,15.47
2022-12-01T02:43:17.982Z,16.37
2022-12-01T02:45:58.940Z,17.23
2022-12-01T02:48:32.950Z,17.83
2022-12-01T02:51:09.286Z,16.27
2022-12-01T02:53:36.243Z,18.33
2022-12-01T02:56:10.475Z,17.13
2022-12-01T02:58:37.202Z,17.80
2022-12-01T03:01:52.599Z,17.77
2022-12-01T03:04:48.098Z,16.60
2022-12-01T03:08:13.825Z,17.13
2022-12-01T03:10:55.075Z,17.83
2022-12-01T03:13:52.406Z,19.10
2022-12-01T03:16:38.454Z,18.50
2022-12-01T03:19:34.247Z,18.60
2022-12-01T03:22:38.595Z,18.57
2022-12-01T03:25:07.582Z,17.90
2022-12-01T03:27:44.133Z,19.37
2022-12-01T03:30:18.210Z,17.27
2022-12-01T03:32:52.168Z,18.27
2022-12-01T03:35:33.319Z,18.50
2022-12-01T03:38:12.477Z,18.70
2022-12-01T03:40:41.371Z,18.17
2022-12-01T03:43:15.839Z,18.53
2022-12-01T03:45:58.775Z,18.13
2022-12-01T03:48:27.923Z,18.90
2022-12-01T03:51:35.568Z,18.17
2022-12-01T03:54:41.085Z,17.77
2022-12-01T03:57:13.569Z,16.43
2022-12-01T03:59:42.728Z,16.20
2022-12-01T04:02:09.794Z,18.93
2022-12-01T04:04:37.162Z,18.07
2022-12-01T04:07:04.188Z,17.23
2022-12-01T04:09:31.016Z,19.07
2022-12-01T04:12:16.255Z,19.67
2022-12-01T04:14:42.930Z,18.87
2022-12-01T04:17:09.807Z,17.60
2022-12-01T04:19:36.476Z,19.10
2022-12-01T04:22:03.780Z,18.17
2022-12-01T04:24:30.601Z,18.20
2022-12-01T04:26:57.376Z,18.07
2022-12-01T04:29:24.096Z,19.23
2022-12-01T04:31:50.914Z,19.33
2022-12-01T04:34:17.712Z,18.57
2022-12-01T04:36:44.438Z,16.30
2022-12-01T04:39:11.191Z,17.00
2022-12-01T04:41:37.956Z,18.70
2022-12-01T04:44:04.911Z,18.30
2022-12-01T04:46:31.716Z,18.40
2022-12-01T04:48:59.620Z,16.30
2022-12-01T04:51:26.294Z,16.17
2022-12-01T04:53:53.051Z,17.60
2022-12-01T04:56:20.070Z,18.27
2022-12-01T04:58:46.966Z,16.90
2022-12-01T05:01:17.813Z,18.07
2022-12-01T05:03:49.439Z,16.50
2022-12-01T05:06:23.479Z,15.97
2022-12-01T05:08:51.692Z,16.23
2022-12-01T05:11:19.965Z,17.27
2022-12-01T05:13:49.150Z,18.43
2022-12-01T05:16:22.725Z,19.23
2022-12-01T05:19:22.211Z,18.43
2022-12-01T05:21:50.600Z,18.57
2022-12-01T05:24:20.797Z,18.23
2022-12-01T05:26:49.905Z,17.40
2022-12-01T05:29:17.811Z,17.73
2022-12-01T05:31:46.705Z,19.13
2022-12-01T05:34:15.927Z,17.47
2022-12-01T05:36:42.681Z,18.30
2022-12-01T05:39:09.496Z,18.67
2022-12-01T05:41:36.631Z,20.70
2022-12-01T05:44:03.768Z,20.03
2022-12-01T05:46:31.926Z,21.23
2022-12-01T05:48:59.831Z,19.97
2022-12-01T05:51:26.629Z,19.33
2022-12-01T05:53:53.426Z,19.67
2022-12-01T05:56:20.182Z,19.30
2022-12-01T05:58:46.863Z,19.80
2022-12-01T06:01:13.535Z,18.90
2022-12-01T06:03:40.297Z,16.73
2022-12-01T06:06:07.107Z,18.90
2022-12-01T06:08:35.017Z,19.83
2022-12-01T06:11:02.877Z,20.30
2022-12-01T06:13:29.635Z,19.50
2022-12-01T06:16:02.976Z,17.37
2022-12-01T06:18:36.587Z,17.97
2022-12-01T06:21:06.782Z,19.13
2022-12-01T06:23:33.858Z,16.97
2022-12-01T06:26:00.667Z,16.67
2022-12-01T06:28:27.419Z,16.80
2022-12-01T06:30:59.314Z,17.97
2022-12-01T06:33:29.514Z,24.23
2022-12-01T06:36:02.402Z,20.83
2022-12-01T06:38:35.116Z,19.77
2022-12-01T06:41:06.887Z,18.30
2022-12-01T06:43:40.636Z,18.77
2022-12-01T06:46:07.636Z,18.60
2022-12-01T06:48:34.730Z,19.03
2022-12-01T06:51:02.051Z,20.10
2022-12-01T06:53:29.398Z,18.13
2022-12-01T06:56:05.306Z,17.00
2022-12-01T06:58:34.641Z,17.63
2022-12-01T07:01:13.007Z,17.30
2022-12-01T07:03:41.050Z,18.33
2022-12-01T07:06:07.803Z,15.97
2022-12-01T07:08:34.589Z,17.30
2022-12-01T07:11:09.590Z,18.90
2022-12-01T07:13:36.491Z,18.43
2022-12-01T07:16:05.056Z,22.80
2022-12-01T07:18:32.995Z,20.90
2022-12-01T07:21:03.122Z,18.47
2022-12-01T07:23:30.338Z,18.60
2022-12-01T07:26:11.192Z,20.10
2022-12-01T07:28:37.937Z,19.73
2022-12-01T07:31:09.824Z,19.40
2022-12-01T07:33:37.824Z,19.17
2022-12-01T07:36:06.163Z,20.40
2022-12-01T07:38:35.616Z,20.20
2022-12-01T07:41:12.482Z,20.07
2022-12-01T07:43:39.968Z,19.23
2022-12-01T07:46:11.090Z,20.27
2022-12-01T07:48:40.529Z,21.03
2022-12-01T07:51:09.748Z,20.57
2022-12-01T07:53:37.320Z,20.53
2022-12-01T07:56:08.819Z,19.83
2022-12-01T07:58:36.093Z,19.57
2022-12-01T08:01:23.736Z,18.40
2022-12-01T08:03:56.053Z,18.30
2022-12-01T08:06:24.589Z,18.57
2022-12-01T08:08:52.118Z,17.77
2022-12-01T08:11:24.243Z,18.13
2022-12-01T08:13:52.531Z,18.97
2022-12-01T08:16:22.644Z,19.37
2022-12-01T08:18:50.062Z,19.63
2022-12-01T08:21:20.654Z,19.87
2022-12-01T08:23:48.378Z,21.77
2022-12-01T08:26:19.280Z,20.80
2022-12-01T08:28:47.283Z,20.53
2022-12-01T08:31:28.146Z,20.10
2022-12-01T08:33:56.106Z,19.17
2022-12-01T08:36:24.212Z,18.90
2022-12-01T08:38:54.967Z,18.63
2022-12-01T08:41:24.517Z,20.83
2022-12-01T08:43:59.871Z,20.57
2022-12-01T08:46:31.701Z,21.97
2022-12-01T08:48:58.598Z,22.97
2022-12-01T08:51:27.659Z,21.17
2022-12-01T08:53:58.900Z,24.07
2022-12-01T08:56:39.572Z,19.67
2022-12-01T08:59:07.174Z,20.97
2022-12-01T09:01:35.039Z,21.40
2022-12-01T09:04:06.324Z,20.87
2022-12-01T09:06:40.158Z,21.50
2022-12-01T09:09:09.492Z,22.90
2022-12-01T09:11:37.263Z,24.03
2022-12-01T09:14:04.118Z,25.57
2022-12-01T09:16:31.159Z,24.20
2022-12-01T09:18:58.026Z,22.10
2022-12-01T09:21:30.616Z,21.97
2022-12-01T09:23:58.314Z,23.50
2022-12-01T09:26:27.211Z,21.07
2022-12-01T09:28:57.603Z,21.37
2022-12-01T09:31:25.645Z,20.47
2022-12-01T09:34:02.112Z,21.47
2022-12-01T09:36:31.742Z,20.30
2022-12-01T09:38:59.009Z,23.07
2022-12-01T09:41:43.849Z,23.70
2022-12-01T09:44:14.431Z,23.73
2022-12-01T09:47:18.832Z,22.37
2022-12-01T09:49:57.818Z,22.43
2022-12-01T09:52:29.145Z,22.47
2022-12-01T09:54:59.330Z,24.10
2022-12-01T09:57:35.327Z,22.33
2022-12-01T10:00:37.942Z,23.60
2022-12-01T10:03:23.969Z,23.07
2022-12-01T10:09:06.745Z,23.07
2022-12-01T10:11:47.099Z,23.57
2022-12-01T10:14:20.751Z,24.90
2022-12-01T10:17:37.595Z,25.90
2022-12-01T10:20:36.640Z,25.60
2022-12-01T10:23:36.083Z,26.20
2022-12-01T10:26:15.308Z,26.43
2022-12-01T10:29:10.482Z,27.77
2022-12-01T10:31:54.699Z,26.07
2022-12-01T10:34:35.207Z,27.57
2022-12-01T10:37:02.911Z,27.10
2022-12-01T10:39:43.792Z,26.60
2022-12-01T10:42:45.024Z,24.80
2022-12-01T10:45:28.705Z,24.30
2022-12-01T10:48:18.707Z,25.97
2022-12-01T10:50:50.591Z,26.37
2022-12-01T10:53:32.464Z,24.53
2022-12-01T10:56:12.690Z,25.87
2022-12-01T10:59:22.191Z,24.33
2022-12-01T11:01:49.864Z,24.90
2022-12-01T11:04:45.537Z,25.83
2022-12-01T11:07:20.456Z,24.60
2022-12-01T11:09:57.991Z,23.97
2022-12-01T11:12:25.624Z,24.77
2022-12-01T11:14:55.377Z,24.27
2022-12-01T11:17:42.784Z,25.93
2022-12-01T11:20:41.485Z,22.90
2022-12-01T11:23:26.597Z,23.27
2022-12-01T11:26:25.583Z,23.53
2022-12-01T11:29:03.468Z,24.77
2022-12-01T11:31:45.806Z,25.13
2022-12-01T11:34:30.606Z,27.07
2022-12-01T11:37:20.308Z,24.60
2022-12-01T11:39:48.724Z,24.80
2022-12-01T11:42:30.334Z,25.13
2022-12-01T11:45:20.212Z,24.97
2022-12-01T11:48:11.888Z,25.77
2022-12-01T11:50:42.715Z,23.70
2022-12-01T11:53:38.433Z,25.30
2022-12-01T11:56:39.897Z,23.27
2022-12-01T11:59:43.054Z,26.23
2022-12-01T12:02:46.398Z,24.67
2022-12-01T12:05:50.109Z,23.00
2022-12-01T12:09:06.175Z,24.63
2022-12-01T12:11:58.361Z,23.87
2022-12-01T12:15:18.967Z,25.37
2022-12-01T12:18:18.586Z,22.77
2022-12-01T12:21:22.168Z,21.60
2022-12-01T12:24:42.715Z,24.10
2022-12-01T12:27:27.655Z,22.97
2022-12-01T12:30:24.445Z,23.30
2022-12-01T12:33:16.961Z,21.83
2022-12-01T12:36:10.259Z,20.87
2022-12-01T12:38:56.498Z,21.33
2022-12-01T12:41:42.719Z,23.33
2022-12-01T12:44:38.161Z,21.17
2022-12-01T12:47:16.573Z,21.20
2022-12-01T12:50:28.490Z,22.10
2022-12-01T12:53:04.851Z,22.83
2022-12-01T12:55:43.971Z,22.50
2022-12-01T12:58:32.616Z,24.10
2022-12-01T13:01:01.906Z,23.57
2022-12-01T13:04:12.100Z,23.80
2022-12-01T13:07:09.814Z,22.70
2022-12-01T13:09:46.874Z,21.80
2022-12-01T13:12:30.511Z,23.70
2022-12-01T13:15:19.307Z,22.93
2022-12-01T13:18:00.957Z,21.93
2022-12-01T13:20:31.989Z,21.50
2022-12-01T13:23:02.051Z,23.70
2022-12-01T13:25:40.056Z,21.00
2022-12-01T13:28:22.414Z,21.30
2022-12-01T13:31:09.225Z,22.57
2022-12-01T13:33:43.176Z,20.37
2022-12-01T13:36:51.108Z,20.70
2022-12-01T13:39:35.630Z,20.33
2022-12-01T13:42:18.953Z,19.23
2022-12-01T13:45:00.598Z,21.07
2022-12-01T13:47:52.686Z,21.27
2022-12-01T13:50:45.956Z,19.87
2022-12-01T13:53:37.204Z,19.00
2022-12-01T13:56:03.936Z,20.27
2022-12-01T13:58:33.670Z,18.83
2022-12-01T14:01:22.703Z,18.27
2022-12-01T14:04:04.970Z,18.80
2022-12-01T14:06:49.052Z,20.63
2022-12-01T14:09:28.512Z,19.53
2022-12-01T14:12:21.881Z,20.70
2022-12-01T14:15:05.027Z,18.80
2022-12-01T14:17:34.651Z,18.20
2022-12-01T14:20:24.808Z,19.03
2022-12-01T14:23:33.784Z,17.83
2022-12-01T14:26:21.235Z,17.93
2022-12-01T14:29:02.919Z,19.20
2022-12-01T14:31:32.712Z,18.00
2022-12-01T14:34:03.335Z,17.43
2022-12-01T14:36:35.802Z,17.90
2022-12-01T14:39:17.990Z,19.70
2022-12-01T14:42:01.412Z,18.47
2022-12-01T14:44:37.959Z,18.17
2022-12-01T14:47:11.008Z,17.47
2022-12-01T14:50:06.016Z,17.33
2022-12-01T14:52:57.765Z,15.87
2022-12-01T14:55:39.183Z,16.50
2022-12-01T14:58:17.718Z,15.57
2022-12-01T15:01:07.357Z,17.47
2022-12-01T15:03:42.934Z,16.40
2022-12-01T15:06:17.180Z,15.97
2022-12-01T15:08:58.506Z,17.37
2022-12-01T15:11:31.206Z,16.13
2022-12-01T15:13:58.188Z,17.33
2022-12-01T15:16:29.320Z,17.33
2022-12-01T15:18:56.305Z,16.37
2022-12-01T15:21:32.206Z,16.17
2022-12-01T15:24:01.534Z,16.13
2022-12-01T15:26:36.134Z,15.90
2022-12-01T15:29:19.155Z,19.00
2022-12-01T15:31:51.650Z,20.10
2022-12-01T15:34:24.737Z,19.10
2022-12-01T15:36:53.523Z,18.43
2022-12-01T15:39:35.023Z,18.50
2022-12-01T15:42:03.566Z,16.57
2022-12-01T15:44:36.598Z,18.07
2022-12-01T15:47:45.657Z,19.03
2022-12-01T15:50:41.270Z,18.93
2022-12-01T15:53:24.889Z,18.80
2022-12-01T15:55:58.717Z,19.40
2022-12-01T15:58:32.961Z,18.73
2022-12-01T16:01:08.768Z,21.47
2022-12-01T16:03:51.170Z,22.63
2022-12-01T16:06:19.024Z,21.93
2022-12-01T16:09:01.906Z,23.43
2022-12-01T16:11:28.911Z,22.03
2022-12-01T16:13:55.588Z,21.57
2022-12-01T16:16:36.188Z,22.97
2022-12-01T16:19:27.143Z,21.53
2022-12-01T16:22:18.814Z,22.20
2022-12-01T16:24:54.551Z,22.03
2022-12-01T16:27:28.507Z,23.73
2022-12-01T16:30:03.579Z,22.97
2022-12-01T16:32:42.428Z,22.73
2022-12-01T16:35:23.508Z,20.20
2022-12-01T16:37:50.300Z,22.83
2022-12-01T16:40:17.462Z,21.47
2022-12-01T16:42:44.755Z,21.60
2022-12-01T16:45:14.874Z,22.03
2022-12-01T16:47:43.881Z,22.30
2022-12-01T16:50:30.840Z,20.40
2022-12-01T16:52:57.619Z,19.03
2022-12-01T16:55:42.458Z,19.80
2022-12-01T16:58:09.825Z,18.90
2022-12-01T17:00:38.059Z,17.27
2022-12-01T17:03:06.227Z,18.50
2022-12-01T17:05:34.225Z,18.00
2022-12-01T17:08:01.087Z,18.60
2022-12-01T17:10:27.980Z,17.20
2022-12-01T17:12:54.725Z,19.30
2022-12-01T17:15:21.535Z,20.47
2022-12-01T17:17:49.887Z,21.43
2022-12-01T17:20:17.259Z,19.90
2022-12-01T17:22:44.039Z,19.30
2022-12-01T17:25:10.860Z,19.90
2022-12-01T17:27:38.521Z,19.83
2022-12-01T17:30:06.886Z,19.60
2022-12-01T17:32:34.820Z,18.83
2022-12-01T17:35:01.711Z,19.07
2022-12-01T17:37:28.703Z,22.40
2022-12-01T17:39:56.056Z,22.20
2022-12-01T17:42:23.056Z,24.10
2022-12-01T17:44:52.189Z,23.07
2022-12-01T17:47:19.128Z,23.60
2022-12-01T17:49:46.036Z,25.00
2022-12-01T17:52:13.997Z,23.87
2022-12-01T17:54:40.921Z,21.07
2022-12-01T17:57:08.658Z,23.63
2022-12-01T17:59:40.117Z,21.47
2022-12-01T18:02:07.680Z,21.83
2022-12-01T18:04:34.525Z,22.37
2022-12-01T18:07:01.370Z,21.77
2022-12-01T18:09:28.208Z,20.87
2022-12-01T18:11:56.414Z,20.23
2022-12-01T18:14:25.097Z,22.53
2022-12-01T18:16:52.979Z,23.63
2022-12-01T18:19:20.589Z,23.30
2022-12-01T18:21:47.370Z,23.37
2022-12-01T18:24:14.051Z,21.40
2022-12-01T18:26:41.474Z,22.13
2022-12-01T18:29:15.957Z,21.63
2022-12-01T18:31:43.200Z,21.87
2022-12-01T18:34:12.362Z,21.00
2022-12-01T18:36:41.259Z,21.40
2022-12-01T18:39:11.212Z,22.00
2022-12-01T18:41:38.533Z,21.37
2022-12-01T18:44:05.650Z,20.80
2022-12-01T18:46:33.189Z,20.77
2022-12-01T18:49:03.088Z,22.63
2022-12-01T18:51:34.931Z,29.13
2022-12-01T18:54:05.267Z,34.13
2022-12-01T18:56:32.652Z,34.87
2022-12-01T18:59:04.799Z,33.77
2022-12-01T19:01:36.347Z,28.40
2022-12-01T19:04:05.511Z,26.10
2022-12-01T19:06:37.266Z,25.90
2022-12-01T19:09:08.967Z,24.50
2022-12-01T19:11:37.273Z,23.00
2022-12-01T19:14:04.551Z,22.90
2022-12-01T19:16:31.756Z,24.07
2022-12-01T19:18:58.677Z,22.07
2022-12-01T19:21:25.410Z,22.63
2022-12-01T19:23:52.999Z,20.47
2022-12-01T19:26:22.658Z,19.93
2022-12-01T19:28:50.022Z,19.93
2022-12-01T19:31:25.993Z,18.60
2022-12-01T19:33:54.911Z,19.60
2022-12-01T19:36:25.099Z,21.67
2022-12-01T19:38:52.832Z,21.27
2022-12-01T19:41:20.755Z,23.93
2022-12-01T19:43:48.336Z,25.10
2022-12-01T19:46:20.562Z,26.17
2022-12-01T19:48:52.391Z,28.43
2022-12-01T19:51:23.348Z,29.40
2022-12-01T19:53:51.275Z,32.83
2022-12-01T19:56:18.396Z,33.23
2022-12-01T19:58:45.465Z,33.23
2022-12-01T20:01:15.443Z,30.27
2022-12-01T20:03:46.468Z,28.20
2022-12-01T20:06:18.709Z,26.93
2022-12-01T20:08:46.489Z,24.63
2022-12-01T20:11:14.472Z,22.70
2022-12-01T20:13:44.842Z,25.83
2022-12-01T20:16:19.309Z,27.33
2022-12-01T20:18:46.967Z,25.30
2022-12-01T20:21:17.471Z,26.33
2022-12-01T20:23:47.842Z,26.50
2022-12-01T20:26:16.787Z,24.10
2022-12-01T20:28:46.751Z,25.23
2022-12-01T20:31:24.346Z,25.13
2022-12-01T20:33:55.407Z,24.70
2022-12-01T20:36:22.971Z,25.83
2022-12-01T20:38:49.830Z,26.50
2022-12-01T20:41:17.708Z,27.20
2022-12-01T20:43:44.794Z,28.53
2022-12-01T20:46:14.115Z,28.53
2022-12-01T20:48:41.059Z,29.07
2022-12-01T20:51:09.307Z,28.17
2022-12-01T20:53:36.355Z,28.37
2022-12-01T20:56:06.737Z,28.70
2022-12-01T20:58:37.472Z,28.37
2022-12-01T21:01:15.424Z,27.47
2022-12-01T21:03:46.000Z,29.23
2022-12-01T21:06:15.542Z,28.20
2022-12-01T21:08:45.489Z,27.73
2022-12-01T21:11:18.943Z,24.67
2022-12-01T21:13:46.808Z,25.00
2022-12-01T21:16:16.560Z,23.77
2022-12-01T21:18:46.399Z,24.43
2022-12-01T21:21:27.406Z,24.13
2022-12-01T21:24:16.989Z,21.97
2022-12-01T21:27:02.083Z,21.27
2022-12-01T21:29:47.596Z,20.97
2022-12-01T21:32:31.343Z,21.63
2022-12-01T21:35:13.739Z,20.03
2022-12-01T21:37:40.609Z,19.53
2022-12-01T21:40:23.062Z,20.83
2022-12-01T21:42:52.505Z,19.10
2022-12-01T21:45:29.663Z,20.20
2022-12-01T21:48:15.112Z,20.23
2022-12-01T21:50:42.462Z,20.47
2022-12-01T21:53:14.919Z,20.47
2022-12-01T21:55:47.547Z,21.33
2022-12-01T21:58:25.388Z,19.80
2022-12-01T22:00:55.169Z,18.80
2022-12-01T22:03:29.835Z,18.80
2022-12-01T22:06:29.278Z,19.30
2022-12-01T22:09:10.751Z,19.47
2022-12-01T22:11:37.691Z,20.63
2022-12-01T22:14:27.672Z,20.03
2022-12-01T22:17:08.980Z,19.57
2022-12-01T22:19:39.226Z,21.27
2022-12-01T22:22:09.038Z,19.93
2022-12-01T22:24:52.677Z,21.20
2022-12-01T22:27:30.020Z,20.10
2022-12-01T22:30:20.099Z,20.03
2022-12-01T22:32:53.015Z,19.53
2022-12-01T22:35:26.154Z,20.13
2022-12-01T22:38:06.546Z,21.27
2022-12-01T22:40:47.957Z,19.50
2022-12-01T22:43:17.731Z,19.13
2022-12-01T22:45:59.265Z,19.00
2022-12-01T22:48:42.313Z,18.87
2022-12-01T22:51:49.149Z,21.60
2022-12-01T22:54:16.048Z,20.27
2022-12-01T22:56:58.932Z,22.10
2022-12-01T22:59:35.375Z,20.20
2022-12-01T23:02:29.413Z,21.37
2022-12-01T23:05:23.231Z,22.17
2022-12-01T23:07:51.587Z,19.80
2022-12-01T23:10:30.296Z,21.37
2022-12-01T23:13:08.423Z,23.07
2022-12-01T23:15:47.001Z,25.17
2022-12-01T23:18:28.786Z,23.10
2022-12-01T23:20:59.030Z,24.20
2022-12-01T23:23:33.178Z,24.27
2022-12-01T23:26:03.872Z,24.97
2022-12-01T23:28:31.101Z,25.57
2022-12-01T23:30:59.597Z,25.80
2022-12-01T23:33:31.113Z,24.53
2022-12-01T23:36:32.627Z,25.17
2022-12-01T23:39:06.805Z,26.20
2022-12-01T23:41:37.893Z,26.60
2022-12-01T23:44:24.881Z,26.43
2022-12-01T23:46:56.239Z,26.57
2022-12-01T23:49:31.289Z,27.03
2022-12-01T23:52:02.594Z,27.43
2022-12-01T23:54:34.683Z,28.70
2022-12-01T23:57:13.023Z,28.17
2022-12-01T23:59:39.809Z,28.60
